createdAt,value
2023-04-14T00:02:09.568Z,13.62
2023-04-14T00:04:36.430Z,13.43
2023-04-14T00:07:03.062Z,13.31
2023-04-14T00:09:29.967Z,13.39
2023-04-14T00:11:57.396Z,13.32
2023-04-14T00:14:23.777Z,13.52
2023-04-14T00:16:50.396Z,13.31
2023-04-14T00:19:16.818Z,13.09
2023-04-14T00:21:43.134Z,13.05
2023-04-14T00:24:09.478Z,12.93
2023-04-14T00:26:35.814Z,13.01
2023-04-14T00:29:02.476Z,13.01
2023-04-14T00:31:29.062Z,13.08
2023-04-14T00:33:55.461Z,13.16
2023-04-14T00:36:21.750Z,13.04
2023-04-14T00:38:48.124Z,13.09
2023-04-14T00:41:14.470Z,13.06
2023-04-14T00:43:40.759Z,13.00
2023-04-14T00:46:07.148Z,12.95
2023-04-14T00:48:33.501Z,13.11
2023-04-14T00:51:00.017Z,13.09
2023-04-14T00:53:27.319Z,12.93
2023-04-14T00:55:53.684Z,12.53
2023-04-14T00:58:20.086Z,12.51
2023-04-14T01:00:52.304Z,12.85
2023-04-14T01:03:18.695Z,12.90
2023-04-14T01:05:45.237Z,12.87
2023-04-14T01:08:12.129Z,12.73
2023-04-14T01:10:41.074Z,12.76
2023-04-14T01:13:10.498Z,12.74
2023-04-14T01:15:52.514Z,12.81
2023-04-14T01:18:24.446Z,12.87
2023-04-14T01:20:51.783Z,12.84
2023-04-14T01:23:26.947Z,12.67
2023-04-14T01:26:22.713Z,12.61
2023-04-14T01:29:04.301Z,12.92
2023-04-14T01:31:50.973Z,12.88
2023-04-14T01:34:22.687Z,12.83
2023-04-14T01:36:51.999Z,12.78
2023-04-14T01:39:18.630Z,12.77
2023-04-14T01:41:47.310Z,12.48
2023-04-14T01:44:13.607Z,12.41
2023-04-14T01:46:40.122Z,12.36
2023-04-14T01:49:06.630Z,12.41
2023-04-14T01:51:33.285Z,12.58
2023-04-14T01:53:59.573Z,12.73
2023-04-14T01:56:25.932Z,12.37
2023-04-14T01:58:52.451Z,12.67
2023-04-14T02:01:18.803Z,12.50
2023-04-14T02:03:45.188Z,12.69
2023-04-14T02:06:12.129Z,12.83
2023-04-14T02:08:38.954Z,12.50
2023-04-14T02:11:05.491Z,12.47
2023-04-14T02:13:32.149Z,12.65
2023-04-14T02:15:59.033Z,12.46
2023-04-14T02:18:25.325Z,12.63
2023-04-14T02:20:52.537Z,12.60
2023-04-14T02:23:18.829Z,12.58
2023-04-14T02:25:49.806Z,12.56
2023-04-14T02:28:17.862Z,12.64
2023-04-14T02:30:44.955Z,12.48
2023-04-14T02:33:12.694Z,12.51
2023-04-14T02:35:48.954Z,12.58
2023-04-14T02:38:28.913Z,12.88
2023-04-14T02:40:55.300Z,12.91
2023-04-14T02:43:26.785Z,12.58
2023-04-14T02:45:53.138Z,12.87
2023-04-14T02:48:19.452Z,12.72
2023-04-14T02:50:46.587Z,12.94
2023-04-14T02:53:13.104Z,12.83
2023-04-14T02:55:39.399Z,12.87
2023-04-14T02:58:05.935Z,12.65
2023-04-14T03:00:32.242Z,12.74
2023-04-14T03:02:58.580Z,12.31
2023-04-14T03:05:24.967Z,12.26
2023-04-14T03:07:52.617Z,12.20
2023-04-14T03:10:19.960Z,12.27
2023-04-14T03:12:46.321Z,12.03
2023-04-14T03:15:12.636Z,12.21
2023-04-14T03:17:39.206Z,12.11
2023-04-14T03:20:05.778Z,11.73
2023-04-14T03:22:34.296Z,11.74
2023-04-14T03:25:00.982Z,11.63
2023-04-14T03:27:27.995Z,11.47
2023-04-14T03:29:55.116Z,11.63
2023-04-14T03:32:22.722Z,11.73
2023-04-14T03:34:50.353Z,12.02
2023-04-14T03:37:17.991Z,11.96
2023-04-14T03:39:45.564Z,11.89
2023-04-14T03:42:12.108Z,11.83
2023-04-14T03:44:39.804Z,12.28
2023-04-14T03:47:08.062Z,12.05
2023-04-14T03:49:38.052Z,12.40
2023-04-14T03:52:07.953Z,12.31
2023-04-14T03:54:34.656Z,12.28
2023-04-14T03:57:02.118Z,12.08
2023-04-14T03:59:28.443Z,11.67
2023-04-14T04:01:54.866Z,11.43
2023-04-14T04:04:21.382Z,11.34
2023-04-14T04:06:50.041Z,11.32
2023-04-14T04:09:17.977Z,11.34
2023-04-14T04:11:46.512Z,11.36
2023-04-14T04:14:13.332Z,11.40
2023-04-14T04:16:40.779Z,11.44
2023-04-14T04:19:07.363Z,11.59
2023-04-14T04:21:36.927Z,11.66
2023-04-14T04:24:03.219Z,11.73
2023-04-14T04:26:29.530Z,11.74
2023-04-14T04:28:59.034Z,11.89
2023-04-14T04:31:25.616Z,11.73
2023-04-14T04:33:51.908Z,11.74
2023-04-14T04:36:18.291Z,11.80
2023-04-14T04:38:44.617Z,11.80
2023-04-14T04:41:23.649Z,11.83
2023-04-14T04:43:49.966Z,11.79
2023-04-14T04:46:22.871Z,11.84
2023-04-14T04:48:52.718Z,11.87
2023-04-14T04:51:19.268Z,11.94
2023-04-14T04:53:45.830Z,11.95
2023-04-14T04:56:12.162Z,12.20
2023-04-14T04:58:38.423Z,12.47
2023-04-14T05:01:11.166Z,12.45
2023-04-14T05:03:37.719Z,12.23
2023-04-14T05:06:04.235Z,12.33
2023-04-14T05:08:30.666Z,12.28
2023-04-14T05:10:57.100Z,12.55
2023-04-14T05:13:23.651Z,12.52
2023-04-14T05:15:49.969Z,12.47
2023-04-14T05:18:16.308Z,12.91
2023-04-14T05:20:42.653Z,12.97
2023-04-14T05:23:08.970Z,13.41
2023-04-14T05:25:35.546Z,13.21
2023-04-14T05:28:01.871Z,11.84
2023-04-14T05:30:28.175Z,12.51
2023-04-14T05:32:54.546Z,12.06
2023-04-14T05:35:20.980Z,12.33
2023-04-14T05:37:47.331Z,12.17
2023-04-14T05:40:13.654Z,13.26
2023-04-14T05:42:41.834Z,13.72
2023-04-14T05:45:08.384Z,14.06
2023-04-14T05:47:34.868Z,13.87
2023-04-14T05:50:03.739Z,14.20
2023-04-14T05:52:30.037Z,14.59
2023-04-14T05:54:56.329Z,14.53
2023-04-14T05:57:22.690Z,14.50
2023-04-14T05:59:48.978Z,14.43
2023-04-14T06:02:15.447Z,14.59
2023-04-14T06:04:41.900Z,14.62
2023-04-14T06:07:08.299Z,14.69
2023-04-14T06:09:34.630Z,14.56
2023-04-14T06:12:01.561Z,14.63
2023-04-14T06:14:27.836Z,14.75
2023-04-14T06:16:54.750Z,14.84
2023-04-14T06:19:21.190Z,14.90
2023-04-14T06:21:47.590Z,15.21
2023-04-14T06:24:13.924Z,15.05
2023-04-14T06:26:40.222Z,15.14
2023-04-14T06:29:07.576Z,15.32
2023-04-14T06:31:34.184Z,15.51
2023-04-14T06:34:00.600Z,15.64
2023-04-14T06:36:27.172Z,15.75
2023-04-14T06:38:53.500Z,15.89
2023-04-14T06:41:19.812Z,16.06
2023-04-14T06:43:46.532Z,16.15
2023-04-14T06:46:13.060Z,16.43
2023-04-14T06:48:39.408Z,16.61
2023-04-14T06:51:05.748Z,16.85
2023-04-14T06:53:32.234Z,16.82
2023-04-14T06:56:01.582Z,16.78
2023-04-14T06:58:28.732Z,17.30
2023-04-14T07:00:59.077Z,17.65
2023-04-14T07:03:26.234Z,16.94
2023-04-14T07:05:53.267Z,17.40
2023-04-14T07:08:20.495Z,17.47
2023-04-14T07:10:47.367Z,17.63
2023-04-14T07:13:13.959Z,17.79
2023-04-14T07:15:45.892Z,17.97
2023-04-14T07:18:12.401Z,18.02
2023-04-14T07:20:38.923Z,18.09
2023-04-14T07:23:05.336Z,18.25
2023-04-14T07:25:35.153Z,18.26
2023-04-14T07:28:03.626Z,18.63
2023-04-14T07:30:31.471Z,19.06
2023-04-14T07:32:58.485Z,18.93
2023-04-14T07:35:26.199Z,18.70
2023-04-14T07:37:52.859Z,18.96
2023-04-14T07:40:20.125Z,19.22
2023-04-14T07:42:47.040Z,19.81
2023-04-14T07:45:13.561Z,19.01
2023-04-14T07:47:40.237Z,19.47
2023-04-14T07:50:07.129Z,19.38
2023-04-14T07:52:33.641Z,19.59
2023-04-14T07:55:00.067Z,20.00
2023-04-14T07:57:26.473Z,20.12
2023-04-14T07:59:52.845Z,20.27
2023-04-14T08:02:19.513Z,20.12
2023-04-14T08:04:46.010Z,20.16
2023-04-14T08:07:12.399Z,20.55
2023-04-14T08:09:39.044Z,20.55
2023-04-14T08:12:05.604Z,20.86
2023-04-14T08:14:32.148Z,20.72
2023-04-14T08:16:58.599Z,20.73
2023-04-14T08:19:25.190Z,21.09
2023-04-14T08:21:52.168Z,20.82
2023-04-14T08:24:18.872Z,20.85
2023-04-14T08:26:45.338Z,21.37
2023-04-14T08:29:11.780Z,21.77
2023-04-14T08:31:38.281Z,21.56
2023-04-14T08:34:04.704Z,21.66
2023-04-14T08:36:31.411Z,21.43
2023-04-14T08:38:59.876Z,21.66
2023-04-14T08:41:26.810Z,21.02
2023-04-14T08:43:53.335Z,21.27
2023-04-14T08:46:20.206Z,22.00
2023-04-14T08:48:50.353Z,21.46
2023-04-14T08:51:35.096Z,21.30
2023-04-14T08:54:04.758Z,21.89
2023-04-14T08:56:34.534Z,21.97
2023-04-14T08:59:01.815Z,22.57
2023-04-14T09:01:29.443Z,22.20
2023-04-14T09:03:57.693Z,22.25
2023-04-14T09:06:24.551Z,22.61
2023-04-14T09:08:51.387Z,22.67
2023-04-14T09:11:17.872Z,23.48
2023-04-14T09:13:44.417Z,22.41
2023-04-14T09:16:12.524Z,23.63
2023-04-14T09:18:40.432Z,23.76
2023-04-14T09:21:49.512Z,24.45
2023-04-14T09:23:54.736Z,24.80
2023-04-14T09:26:21.285Z,23.45
2023-04-14T09:28:47.702Z,23.97
2023-04-14T09:31:14.109Z,24.38
2023-04-14T09:33:44.455Z,23.82
2023-04-14T09:36:19.667Z,24.09
2023-04-14T09:38:46.193Z,24.20
2023-04-14T09:41:21.579Z,24.62
2023-04-14T09:43:48.845Z,24.77
2023-04-14T09:46:15.675Z,24.57
2023-04-14T09:48:55.990Z,24.94
2023-04-14T09:51:33.161Z,25.28
2023-04-14T09:54:06.575Z,25.49
2023-04-14T09:56:33.324Z,24.09
2023-04-14T09:59:01.333Z,23.49
2023-04-14T10:01:33.884Z,22.60
2023-04-14T10:04:02.143Z,21.95
2023-04-14T10:06:28.671Z,21.82
2023-04-14T10:08:56.037Z,22.08
2023-04-14T10:11:24.907Z,22.36
2023-04-14T10:13:59.003Z,23.02
2023-04-14T10:16:26.558Z,23.02
2023-04-14T10:18:53.876Z,22.94
2023-04-14T10:21:22.853Z,22.70
2023-04-14T10:23:49.379Z,22.75
2023-04-14T10:26:18.882Z,22.62
2023-04-14T10:28:47.076Z,23.13
2023-04-14T10:31:38.343Z,23.38
2023-04-14T10:34:12.316Z,22.74
2023-04-14T10:36:39.632Z,23.75
2023-04-14T10:39:06.932Z,23.36
2023-04-14T10:41:44.259Z,22.08
2023-04-14T10:44:31.436Z,20.72
2023-04-14T10:47:00.232Z,21.78
2023-04-14T10:49:35.267Z,23.03
2023-04-14T10:52:03.769Z,22.99
2023-04-14T10:54:51.458Z,21.85
2023-04-14T10:57:19.231Z,23.37
2023-04-14T10:59:47.340Z,24.51
2023-04-14T11:02:26.074Z,25.01
2023-04-14T11:05:06.749Z,25.36
2023-04-14T11:07:47.211Z,25.21
2023-04-14T11:10:16.761Z,26.39
2023-04-14T11:12:44.396Z,26.28
2023-04-14T11:15:11.045Z,24.13
2023-04-14T11:17:39.026Z,23.98
2023-04-14T11:20:19.547Z,24.31
2023-04-14T11:22:47.773Z,25.23
2023-04-14T11:25:16.268Z,24.33
2023-04-14T11:27:44.894Z,24.55
2023-04-14T11:30:19.457Z,23.69
2023-04-14T11:32:46.678Z,22.99
2023-04-14T11:35:13.762Z,21.04
2023-04-14T11:37:40.305Z,22.77
2023-04-14T11:40:07.450Z,23.19
2023-04-14T11:42:34.177Z,23.70
2023-04-14T11:45:02.726Z,22.22
2023-04-14T11:47:29.239Z,21.61
2023-04-14T11:49:55.634Z,21.96
2023-04-14T11:52:22.024Z,21.79
2023-04-14T11:54:49.242Z,22.66
2023-04-14T11:57:18.626Z,22.72
2023-04-14T11:59:47.153Z,22.19
2023-04-14T12:02:18.707Z,23.12
2023-04-14T12:04:50.618Z,23.55
2023-04-14T12:07:18.661Z,22.55
2023-04-14T12:09:49.112Z,22.64
2023-04-14T12:12:17.316Z,21.99
2023-04-14T12:14:44.271Z,23.63
2023-04-14T12:17:10.709Z,22.77
2023-04-14T12:19:37.387Z,24.56
2023-04-14T12:22:04.202Z,24.73
2023-04-14T12:24:33.232Z,24.03
2023-04-14T12:26:59.736Z,23.30
2023-04-14T12:29:26.116Z,24.07
2023-04-14T12:31:53.797Z,22.44
2023-04-14T12:34:26.576Z,24.07
2023-04-14T12:36:53.302Z,24.33
2023-04-14T12:39:22.030Z,24.32
2023-04-14T12:41:48.500Z,24.08
2023-04-14T12:44:15.591Z,25.04
2023-04-14T12:46:46.847Z,24.74
2023-04-14T12:49:29.015Z,26.14
2023-04-14T12:51:55.536Z,25.49
2023-04-14T12:54:22.080Z,24.66
2023-04-14T12:56:48.404Z,24.86
2023-04-14T12:59:14.717Z,25.37
2023-04-14T13:01:41.178Z,25.31
2023-04-14T13:04:07.857Z,25.81
2023-04-14T13:06:35.025Z,26.74
2023-04-14T13:09:01.618Z,27.50
2023-04-14T13:11:28.685Z,26.78
2023-04-14T13:13:55.003Z,25.71
2023-04-14T13:16:22.110Z,24.28
2023-04-14T13:18:48.972Z,25.15
2023-04-14T13:21:15.826Z,25.40
2023-04-14T13:23:42.344Z,24.95
2023-04-14T13:26:08.787Z,24.54
2023-04-14T13:28:35.507Z,24.85
2023-04-14T13:31:01.817Z,23.99
2023-04-14T13:33:28.126Z,23.77
2023-04-14T13:35:55.620Z,24.01
2023-04-14T13:38:22.185Z,23.16
2023-04-14T13:40:48.556Z,22.43
2023-04-14T13:43:15.754Z,22.08
2023-04-14T13:45:42.333Z,21.11
2023-04-14T13:48:08.695Z,22.15
2023-04-14T13:50:35.037Z,22.98
2023-04-14T13:53:01.479Z,23.48
2023-04-14T13:55:27.834Z,23.77
2023-04-14T13:57:55.177Z,22.32
2023-04-14T14:00:21.773Z,22.33
2023-04-14T14:02:48.256Z,22.41
2023-04-14T14:05:14.839Z,22.51
2023-04-14T14:07:41.309Z,21.21
2023-04-14T14:10:09.893Z,22.19
2023-04-14T14:12:36.440Z,23.07
2023-04-14T14:15:04.764Z,21.65
2023-04-14T14:17:31.509Z,22.56
2023-04-14T14:19:57.936Z,21.20
2023-04-14T14:22:24.275Z,21.59
2023-04-14T14:24:50.631Z,23.21
2023-04-14T14:27:17.076Z,23.73
2023-04-14T14:29:43.434Z,23.64
2023-04-14T14:32:09.740Z,24.07
2023-04-14T14:34:36.121Z,23.91
2023-04-14T14:37:03.082Z,22.18
2023-04-14T14:39:32.333Z,23.35
2023-04-14T14:41:58.854Z,23.72
2023-04-14T14:44:25.539Z,24.72
2023-04-14T14:46:52.783Z,24.71
2023-04-14T14:49:19.749Z,24.58
2023-04-14T14:51:46.113Z,24.54
2023-04-14T14:54:12.707Z,24.97
2023-04-14T14:56:39.150Z,24.92
2023-04-14T14:59:05.839Z,24.68
2023-04-14T15:01:33.018Z,24.30
2023-04-14T15:03:59.682Z,23.81
2023-04-14T15:06:27.632Z,25.03
2023-04-14T15:08:53.999Z,24.79
2023-04-14T15:11:21.259Z,22.23
2023-04-14T15:13:47.627Z,22.71
2023-04-14T15:16:14.059Z,22.66
2023-04-14T15:18:40.576Z,23.68
2023-04-14T15:21:06.969Z,23.99
2023-04-14T15:23:36.992Z,24.08
2023-04-14T15:26:03.430Z,24.27
2023-04-14T15:28:30.647Z,24.81
2023-04-14T15:30:56.941Z,25.68
2023-04-14T15:33:23.813Z,25.26
2023-04-14T15:35:50.435Z,24.83
2023-04-14T15:38:17.096Z,25.10
2023-04-14T15:40:43.436Z,24.68
2023-04-14T15:43:10.600Z,24.65
2023-04-14T15:45:37.071Z,23.28
2023-04-14T15:48:03.530Z,21.98
2023-04-14T15:50:29.907Z,22.17
2023-04-14T15:52:57.261Z,23.71
2023-04-14T15:55:23.686Z,23.41
2023-04-14T15:57:51.021Z,24.25
2023-04-14T16:00:17.612Z,24.60
2023-04-14T16:02:46.222Z,24.05
2023-04-14T16:05:12.877Z,23.47
2023-04-14T16:07:39.863Z,23.65
2023-04-14T16:10:06.700Z,22.37
2023-04-14T16:12:33.593Z,22.03
2023-04-14T16:14:59.915Z,22.32
2023-04-14T16:17:26.282Z,22.57
2023-04-14T16:19:52.750Z,22.77
2023-04-14T16:22:19.343Z,22.87
2023-04-14T16:24:46.778Z,23.03
2023-04-14T16:27:13.242Z,23.69
2023-04-14T16:29:39.606Z,23.71
2023-04-14T16:32:05.922Z,22.83
2023-04-14T16:34:32.309Z,22.84
2023-04-14T16:36:58.679Z,22.20
2023-04-14T16:39:25.126Z,22.53
2023-04-14T16:41:51.487Z,22.85
2023-04-14T16:44:18.072Z,23.08
2023-04-14T16:46:44.573Z,22.73
2023-04-14T16:49:11.228Z,21.38
2023-04-14T16:51:38.149Z,22.68
2023-04-14T16:54:04.815Z,23.03
2023-04-14T16:56:31.332Z,23.06
2023-04-14T16:58:58.039Z,21.09
2023-04-14T17:01:26.449Z,21.45
2023-04-14T17:03:53.233Z,21.80
2023-04-14T17:06:19.796Z,21.53
2023-04-14T17:08:46.320Z,21.21
2023-04-14T17:11:12.956Z,20.63
2023-04-14T17:13:39.706Z,20.47
2023-04-14T17:16:09.292Z,20.93
2023-04-14T17:18:36.489Z,21.11
2023-04-14T17:21:03.321Z,21.94
2023-04-14T17:23:29.650Z,21.99
2023-04-14T17:25:56.267Z,22.27
2023-04-14T17:28:22.778Z,22.07
2023-04-14T17:30:49.861Z,22.92
2023-04-14T17:33:17.234Z,23.09
2023-04-14T17:35:43.618Z,22.84
2023-04-14T17:38:09.982Z,22.62
2023-04-14T17:40:36.291Z,22.63
2023-04-14T17:43:04.354Z,22.63
2023-04-14T17:45:30.966Z,22.15
2023-04-14T17:47:57.375Z,22.36
2023-04-14T17:50:24.355Z,22.08
2023-04-14T17:52:51.191Z,21.94
2023-04-14T17:55:17.481Z,21.00
2023-04-14T17:57:45.171Z,21.21
2023-04-14T18:00:11.800Z,21.41
2023-04-14T18:02:41.350Z,21.02
2023-04-14T18:05:08.157Z,20.78
2023-04-14T18:07:34.995Z,21.57
2023-04-14T18:10:01.341Z,20.95
2023-04-14T18:12:27.888Z,20.66
2023-04-14T18:14:54.347Z,20.94
2023-04-14T18:17:21.690Z,20.12
2023-04-14T18:19:48.153Z,20.73
2023-04-14T18:22:14.619Z,21.04
2023-04-14T18:29:41.182Z,21.79
2023-04-14T18:32:07.625Z,21.66
2023-04-14T18:34:34.984Z,21.23
2023-04-14T18:37:03.960Z,21.37
2023-04-14T18:39:36.855Z,21.08
2023-04-14T18:42:04.017Z,21.29
2023-04-14T18:44:30.484Z,21.24
2023-04-14T18:46:56.913Z,21.18
2023-04-14T18:49:23.670Z,21.17
2023-04-14T18:51:50.208Z,21.28
2023-04-14T18:54:16.665Z,21.42
2023-04-14T18:56:43.261Z,21.22
2023-04-14T18:59:09.643Z,20.95
2023-04-14T19:01:36.214Z,20.45
2023-04-14T19:04:03.680Z,21.14
2023-04-14T19:06:30.159Z,21.28
2023-04-14T19:08:56.618Z,21.23
2023-04-14T19:11:23.827Z,20.74
2023-04-14T19:13:50.303Z,20.40
2023-04-14T19:16:17.078Z,20.62
2023-04-14T19:18:43.611Z,20.54
2023-04-14T19:21:10.034Z,20.88
2023-04-14T19:23:37.237Z,21.09
2023-04-14T19:26:05.301Z,20.90
2023-04-14T19:28:31.950Z,20.79
2023-04-14T19:30:58.748Z,20.99
2023-04-14T19:33:26.823Z,21.21
2023-04-14T19:35:53.408Z,21.37
2023-04-14T19:38:20.194Z,21.58
2023-04-14T19:40:48.419Z,22.62
2023-04-14T19:43:18.590Z,20.83
2023-04-14T19:45:57.285Z,21.94
2023-04-14T19:48:24.657Z,22.54
2023-04-14T19:50:54.929Z,22.70
2023-04-14T19:53:21.873Z,19.48
2023-04-14T19:55:51.510Z,18.62
2023-04-14T19:58:21.583Z,18.48
2023-04-14T20:00:48.657Z,18.52
2023-04-14T20:03:15.056Z,18.45
2023-04-14T20:05:41.754Z,18.29
2023-04-14T20:08:08.242Z,20.24
2023-04-14T20:10:34.778Z,20.30
2023-04-14T20:13:01.262Z,19.75
2023-04-14T20:15:27.652Z,20.20
2023-04-14T20:17:54.080Z,20.14
2023-04-14T20:20:21.406Z,19.55
2023-04-14T20:22:49.471Z,19.61
2023-04-14T20:25:17.846Z,19.61
2023-04-14T20:27:44.222Z,19.74
2023-04-14T20:30:12.350Z,19.33
2023-04-14T20:32:38.715Z,19.10
2023-04-14T20:35:05.634Z,19.54
2023-04-14T20:37:32.075Z,19.50
2023-04-14T20:39:58.390Z,19.63
2023-04-14T20:42:25.220Z,19.47
2023-04-14T20:44:51.581Z,19.66
2023-04-14T20:47:17.932Z,19.57
2023-04-14T20:49:44.908Z,19.22
2023-04-14T20:52:11.328Z,19.05
2023-04-14T20:54:37.727Z,19.03
2023-04-14T20:57:05.502Z,19.12
2023-04-14T20:59:32.603Z,19.08
2023-04-14T21:01:59.010Z,18.79
2023-04-14T21:04:26.098Z,19.00
2023-04-14T21:06:52.776Z,18.78
2023-04-14T21:09:21.172Z,18.65
2023-04-14T21:11:47.734Z,18.71
2023-04-14T21:15:47.890Z,18.35
2023-04-14T21:17:20.283Z,18.38
2023-04-14T21:19:47.031Z,18.48
2023-04-14T21:22:13.383Z,18.39
2023-04-14T21:24:39.687Z,18.52
2023-04-14T21:27:05.995Z,18.09
2023-04-14T21:29:32.364Z,18.28
2023-04-14T21:31:58.688Z,18.39
2023-04-14T21:34:27.301Z,18.34
2023-04-14T21:36:53.634Z,18.30
2023-04-14T21:39:20.302Z,18.30
2023-04-14T21:41:46.651Z,17.94
2023-04-14T21:44:15.558Z,17.88
2023-04-14T21:46:42.143Z,17.68
2023-04-14T21:49:08.462Z,17.10
2023-04-14T21:51:34.757Z,17.50
2023-04-14T21:54:01.324Z,17.09
2023-04-14T21:56:27.912Z,17.38
2023-04-14T21:58:54.358Z,17.52
2023-04-14T22:01:20.818Z,17.50
2023-04-14T22:03:47.351Z,17.52
2023-04-14T22:06:13.779Z,17.31
2023-04-14T22:08:43.088Z,17.30
2023-04-14T22:11:09.433Z,17.27
2023-04-14T22:13:36.100Z,17.20
2023-04-14T22:16:03.578Z,17.02
2023-04-14T22:18:30.906Z,16.78
2023-04-14T22:20:57.180Z,16.64
2023-04-14T22:23:23.729Z,16.64
2023-04-14T22:25:51.013Z,16.71
2023-04-14T22:28:17.298Z,16.96
2023-04-14T22:30:44.087Z,17.52
2023-04-14T22:33:10.530Z,17.27
2023-04-14T22:35:37.153Z,17.57
2023-04-14T22:38:03.563Z,17.55
2023-04-14T22:40:29.953Z,17.57
2023-04-14T22:42:56.560Z,17.63
2023-04-14T22:45:23.056Z,17.51
2023-04-14T22:47:49.605Z,17.61
2023-04-14T22:50:16.050Z,17.67
2023-04-14T22:52:42.742Z,17.32
2023-04-14T22:55:09.248Z,17.12
2023-04-14T22:57:35.624Z,17.15
2023-04-14T23:00:08.864Z,17.43
2023-04-14T23:02:36.149Z,16.87
2023-04-14T23:05:04.094Z,16.54
2023-04-14T23:07:30.518Z,16.24
2023-04-14T23:09:57.470Z,16.03
2023-04-14T23:12:23.924Z,15.87
2023-04-14T23:14:50.546Z,16.27
2023-04-14T23:17:17.188Z,15.79
2023-04-14T23:19:43.633Z,16.13
2023-04-14T23:22:10.202Z,15.62
2023-04-14T23:24:36.609Z,15.22
2023-04-14T23:27:03.127Z,15.10
2023-04-14T23:29:29.590Z,14.98
2023-04-14T23:31:56.622Z,15.23
2023-04-14T23:34:23.413Z,16.19
2023-04-14T23:36:49.795Z,16.24
2023-04-14T23:39:16.169Z,16.50
2023-04-14T23:41:42.633Z,15.95
2023-04-14T23:44:09.390Z,15.89
2023-04-14T23:46:36.027Z,16.28
2023-04-14T23:49:02.639Z,16.48
2023-04-14T23:51:29.755Z,16.48
2023-04-14T23:53:59.370Z,16.47
2023-04-14T23:56:26.065Z,15.98
2023-04-14T23:58:53.116Z,15.78
